createdAt,value
2019-01-27T00:00:08.813Z,991.25
2019-01-27T00:01:08.798Z,991.26
2019-01-27T00:02:08.787Z,991.21
2019-01-27T00:03:08.778Z,991.24
2019-01-27T00:04:08.791Z,991.26
2019-01-27T00:05:08.760Z,991.16
2019-01-27T00:06:08.741Z,991.28
2019-01-27T00:07:08.748Z,991.22
2019-01-27T00:08:13.442Z,991.27
2019-01-27T00:09:09.749Z,991.24
2019-01-27T00:10:08.693Z,991.25
2019-01-27T00:11:08.683Z,991.22
2019-01-27T00:12:08.669Z,991.21
2019-01-27T00:13:08.671Z,991.18
2019-01-27T00:14:08.679Z,991.18
2019-01-27T00:15:08.643Z,991.14
2019-01-27T00:16:08.639Z,991.14
2019-01-27T00:17:08.632Z,991.15
2019-01-27T00:18:08.605Z,991.13
2019-01-27T00:19:08.655Z,991.19
2019-01-27T00:20:08.592Z,991.19
2019-01-27T00:21:08.600Z,991.17
2019-01-27T00:22:08.558Z,991.12
2019-01-27T00:23:08.547Z,991.09
2019-01-27T00:24:08.613Z,991.10
2019-01-27T00:25:08.526Z,991.10
2019-01-27T00:26:08.537Z,991.05
2019-01-27T00:27:08.559Z,991.08
2019-01-27T00:28:08.491Z,991.03
2019-01-27T00:29:08.501Z,991.02
2019-01-27T00:30:08.482Z,991.05
2019-01-27T00:31:08.480Z,991.02
2019-01-27T00:32:08.444Z,991.03
2019-01-27T00:33:08.491Z,990.96
2019-01-27T00:34:08.541Z,990.97
2019-01-27T00:35:08.452Z,990.94
2019-01-27T00:36:08.397Z,990.97
2019-01-27T00:37:08.389Z,990.97
2019-01-27T00:38:08.378Z,990.93
2019-01-27T00:39:08.419Z,990.94
2019-01-27T00:40:08.349Z,990.91
2019-01-27T00:41:08.360Z,990.84
2019-01-27T00:42:08.333Z,990.86
2019-01-27T00:43:08.323Z,990.84
2019-01-27T00:44:08.518Z,990.88
2019-01-27T00:45:08.293Z,990.84
2019-01-27T00:46:08.288Z,990.88
2019-01-27T00:47:08.290Z,990.86
2019-01-27T00:48:08.287Z,990.85
2019-01-27T00:49:08.269Z,990.82
2019-01-27T00:50:08.248Z,990.82
2019-01-27T00:51:08.223Z,990.80
2019-01-27T00:52:08.223Z,990.84
2019-01-27T00:53:08.206Z,990.74
2019-01-27T00:54:08.222Z,990.75
2019-01-27T00:55:08.185Z,990.74
2019-01-27T00:56:08.178Z,990.72
2019-01-27T00:57:08.161Z,990.77
2019-01-27T00:58:08.151Z,990.70
2019-01-27T00:59:08.154Z,990.68
2019-01-27T01:00:08.137Z,990.73
2019-01-27T01:01:08.259Z,990.69
2019-01-27T01:02:08.109Z,990.67
2019-01-27T01:03:08.085Z,990.71
2019-01-27T01:04:08.093Z,990.69
2019-01-27T01:05:08.067Z,990.69
2019-01-27T01:06:08.060Z,990.70
2019-01-27T01:07:08.048Z,990.63
2019-01-27T01:08:08.038Z,990.67
2019-01-27T01:09:08.051Z,990.59
2019-01-27T01:10:08.017Z,990.65
2019-01-27T01:11:07.998Z,990.57
2019-01-27T01:12:08.008Z,990.63
2019-01-27T01:13:07.980Z,990.57
2019-01-27T01:14:07.969Z,990.53
2019-01-27T01:15:07.976Z,990.54
2019-01-27T01:16:07.940Z,990.49
2019-01-27T01:17:07.934Z,990.49
2019-01-27T01:18:07.916Z,990.46
2019-01-27T01:19:07.912Z,990.47
2019-01-27T01:20:07.916Z,990.48
2019-01-27T01:21:07.885Z,990.43
2019-01-27T01:22:07.874Z,990.39
2019-01-27T01:23:07.861Z,990.39
2019-01-27T01:24:07.859Z,990.37
2019-01-27T01:25:07.868Z,990.32
2019-01-27T01:26:07.829Z,990.34
2019-01-27T01:27:07.814Z,990.33
2019-01-27T01:28:07.811Z,990.33
2019-01-27T01:29:07.801Z,990.29
2019-01-27T01:30:07.802Z,990.34
2019-01-27T01:31:07.774Z,990.29
2019-01-27T01:32:07.767Z,990.23
2019-01-27T01:33:07.771Z,990.27
2019-01-27T01:34:07.743Z,990.30
2019-01-27T01:35:07.755Z,990.27
2019-01-27T01:36:07.721Z,990.25
2019-01-27T01:37:07.703Z,990.20
2019-01-27T01:38:07.713Z,990.27
2019-01-27T01:39:07.693Z,990.23
2019-01-27T01:40:07.693Z,990.20
2019-01-27T01:41:07.664Z,990.18
2019-01-27T01:42:07.650Z,990.16
2019-01-27T01:43:07.646Z,990.16
2019-01-27T01:44:07.634Z,990.08
2019-01-27T01:45:07.656Z,990.09
2019-01-27T01:46:07.608Z,990.04
2019-01-27T01:47:07.598Z,989.99
2019-01-27T01:48:07.581Z,989.97
2019-01-27T01:49:07.572Z,989.92
2019-01-27T01:50:07.592Z,989.86
2019-01-27T01:51:07.545Z,989.84
2019-01-27T01:52:07.539Z,989.80
2019-01-27T01:53:07.540Z,989.74
2019-01-27T01:54:07.512Z,989.80
2019-01-27T01:55:07.505Z,989.75
2019-01-27T01:56:07.513Z,989.75
2019-01-27T01:57:07.477Z,989.71
2019-01-27T01:58:07.471Z,989.71
2019-01-27T01:59:07.467Z,989.65
2019-01-27T02:00:07.446Z,989.69
2019-01-27T02:01:07.461Z,989.66
2019-01-27T02:02:07.425Z,989.70
2019-01-27T02:03:07.411Z,989.64
2019-01-27T02:04:07.401Z,989.63
2019-01-27T02:05:07.398Z,989.58
2019-01-27T02:06:07.404Z,989.58
2019-01-27T02:07:07.368Z,989.57
2019-01-27T02:08:07.354Z,989.53
2019-01-27T02:09:07.357Z,989.53
2019-01-27T02:10:07.332Z,989.49
2019-01-27T02:11:07.352Z,989.54
2019-01-27T02:12:07.313Z,989.53
2019-01-27T02:13:07.303Z,989.45
2019-01-27T02:14:07.295Z,989.45
2019-01-27T02:15:07.275Z,989.39
2019-01-27T02:16:07.284Z,989.38
2019-01-27T02:17:07.260Z,989.36
2019-01-27T02:18:07.256Z,989.37
2019-01-27T02:19:07.230Z,989.36
2019-01-27T02:20:07.226Z,989.31
2019-01-27T02:21:07.225Z,989.29
2019-01-27T02:22:07.213Z,989.28
2019-01-27T02:23:07.187Z,989.27
2019-01-27T02:24:07.172Z,989.25
2019-01-27T02:25:07.173Z,989.23
2019-01-27T02:26:07.172Z,989.18
2019-01-27T02:27:07.168Z,989.16
2019-01-27T02:28:07.133Z,989.17
2019-01-27T02:29:07.114Z,989.16
2019-01-27T02:30:07.128Z,989.18
2019-01-27T02:31:07.142Z,989.15
2019-01-27T02:32:07.104Z,989.11
2019-01-27T02:33:07.077Z,989.10
2019-01-27T02:34:07.062Z,989.07
2019-01-27T02:35:07.064Z,989.02
2019-01-27T02:36:07.056Z,989.05
2019-01-27T02:37:07.048Z,989.00
2019-01-27T02:38:07.013Z,989.01
2019-01-27T02:39:07.006Z,988.97
2019-01-27T02:40:06.996Z,989.02
2019-01-27T02:41:06.981Z,988.91
2019-01-27T02:42:06.984Z,988.89
2019-01-27T02:43:06.965Z,988.88
2019-01-27T02:44:06.955Z,988.85
2019-01-27T02:45:06.938Z,988.82
2019-01-27T02:46:06.929Z,988.73
2019-01-27T02:47:06.938Z,988.72
2019-01-27T02:48:06.925Z,988.67
2019-01-27T02:49:06.894Z,988.66
2019-01-27T02:50:06.881Z,988.65
2019-01-27T02:51:06.886Z,988.65
2019-01-27T02:52:06.891Z,988.65
2019-01-27T02:53:06.846Z,988.64
2019-01-27T02:54:06.836Z,988.58
2019-01-27T02:55:06.821Z,988.54
2019-01-27T02:56:06.813Z,988.50
2019-01-27T02:57:06.849Z,988.48
2019-01-27T02:58:06.795Z,988.52
2019-01-27T02:59:06.777Z,988.49
2019-01-27T03:00:06.790Z,988.50
2019-01-27T03:01:06.755Z,988.46
2019-01-27T03:02:06.763Z,988.43
2019-01-27T03:03:06.742Z,988.43
2019-01-27T03:04:06.721Z,988.41
2019-01-27T03:05:06.735Z,988.37
2019-01-27T03:06:06.710Z,988.34
2019-01-27T03:07:06.724Z,988.33
2019-01-27T03:08:06.688Z,988.33
2019-01-27T03:09:06.674Z,988.27
2019-01-27T03:10:06.654Z,988.26
2019-01-27T03:11:06.651Z,988.26
2019-01-27T03:12:06.654Z,988.17
2019-01-27T03:13:06.637Z,988.24
2019-01-27T03:14:06.611Z,988.26
2019-01-27T03:15:06.597Z,988.19
2019-01-27T03:16:06.611Z,988.19
2019-01-27T03:17:06.595Z,988.21
2019-01-27T03:18:06.570Z,988.13
2019-01-27T03:19:06.548Z,988.10
2019-01-27T03:20:06.555Z,988.09
2019-01-27T03:21:06.533Z,988.12
2019-01-27T03:22:06.524Z,988.12
2019-01-27T03:23:06.541Z,988.10
2019-01-27T03:24:06.499Z,988.10
2019-01-27T03:25:06.482Z,988.11
2019-01-27T03:26:06.473Z,988.10
2019-01-27T03:27:06.458Z,988.05
2019-01-27T03:28:06.468Z,988.06
2019-01-27T03:29:06.440Z,988.01
2019-01-27T03:30:06.430Z,988.07
2019-01-27T03:31:06.411Z,988.04
2019-01-27T03:32:06.409Z,988.05
2019-01-27T03:33:06.428Z,988.04
2019-01-27T03:34:06.401Z,988.02
2019-01-27T03:35:06.374Z,988.04
2019-01-27T03:36:06.357Z,988.03
2019-01-27T03:37:06.348Z,988.04
2019-01-27T03:38:06.386Z,987.95
2019-01-27T03:39:06.337Z,987.99
2019-01-27T03:40:06.318Z,987.96
2019-01-27T03:41:06.315Z,987.98
2019-01-27T03:42:06.289Z,987.92
2019-01-27T03:43:06.305Z,987.95
2019-01-27T03:44:06.278Z,987.93
2019-01-27T03:45:06.257Z,987.93
2019-01-27T03:46:06.269Z,987.91
2019-01-27T03:47:06.249Z,987.88
2019-01-27T03:48:06.242Z,987.84
2019-01-27T03:49:06.212Z,987.83
2019-01-27T03:50:06.208Z,987.82
2019-01-27T03:51:06.195Z,987.80
2019-01-27T03:52:06.196Z,987.78
2019-01-27T03:53:06.184Z,987.72
2019-01-27T03:54:06.157Z,987.71
2019-01-27T03:55:06.143Z,987.73
2019-01-27T03:56:06.140Z,987.70
2019-01-27T03:57:06.128Z,987.67
2019-01-27T03:58:06.137Z,987.62
2019-01-27T03:59:06.099Z,987.64
2019-01-27T04:00:06.088Z,987.63
2019-01-27T04:01:06.080Z,987.60
2019-01-27T04:02:06.056Z,987.62
2019-01-27T04:03:06.054Z,987.54
2019-01-27T04:04:06.085Z,987.57
2019-01-27T04:05:06.033Z,987.47
2019-01-27T04:06:06.020Z,987.44
2019-01-27T04:07:06.014Z,987.39
2019-01-27T04:08:06.004Z,987.36
2019-01-27T04:09:06.002Z,987.33
2019-01-27T04:10:05.974Z,987.37
2019-01-27T04:11:05.970Z,987.31
2019-01-27T04:12:05.954Z,987.32
2019-01-27T04:13:05.937Z,987.33
2019-01-27T04:14:05.946Z,987.29
2019-01-27T04:15:05.917Z,987.25
2019-01-27T04:16:05.907Z,987.25
2019-01-27T04:17:05.903Z,987.25
2019-01-27T04:18:05.904Z,987.24
2019-01-27T04:19:05.909Z,987.23
2019-01-27T04:20:05.859Z,987.24
2019-01-27T04:21:05.857Z,987.18
2019-01-27T04:22:05.835Z,987.19
2019-01-27T04:23:05.828Z,987.15
2019-01-27T04:24:05.861Z,987.15
2019-01-27T04:25:05.803Z,987.18
2019-01-27T04:26:05.797Z,987.08
2019-01-27T04:27:05.775Z,987.09
2019-01-27T04:28:05.767Z,987.08
2019-01-27T04:29:05.775Z,987.08
2019-01-27T04:30:05.742Z,987.05
2019-01-27T04:31:05.732Z,987.06
2019-01-27T04:32:05.728Z,987.08
2019-01-27T04:33:05.714Z,987.07
2019-01-27T04:34:05.714Z,987.01
2019-01-27T04:35:05.693Z,987.03
2019-01-27T04:36:05.676Z,987.05
2019-01-27T04:37:05.677Z,986.98
2019-01-27T04:38:05.658Z,987.06
2019-01-27T04:39:05.673Z,987.03
2019-01-27T04:40:05.630Z,987.00
2019-01-27T04:41:05.622Z,986.94
2019-01-27T04:42:05.618Z,986.97
2019-01-27T04:43:05.628Z,986.91
2019-01-27T04:44:05.641Z,986.88
2019-01-27T04:45:05.577Z,986.86
2019-01-27T04:46:05.570Z,986.85
2019-01-27T04:47:05.556Z,986.83
2019-01-27T04:48:05.552Z,986.85
2019-01-27T04:49:05.528Z,986.81
2019-01-27T04:50:05.549Z,986.79
2019-01-27T04:51:05.515Z,986.76
2019-01-27T04:52:05.497Z,986.81
2019-01-27T04:53:05.486Z,986.80
2019-01-27T04:54:05.476Z,986.77
2019-01-27T04:55:05.487Z,986.77
2019-01-27T04:56:05.453Z,986.71
2019-01-27T04:57:05.446Z,986.73
2019-01-27T04:58:05.437Z,986.67
2019-01-27T04:59:05.418Z,986.70
2019-01-27T05:00:05.427Z,986.67
2019-01-27T05:01:06.431Z,986.65
2019-01-27T05:02:05.386Z,986.63
2019-01-27T05:03:05.371Z,986.67
2019-01-27T05:04:05.361Z,986.65
2019-01-27T05:05:05.369Z,986.66
2019-01-27T05:06:05.345Z,986.65
2019-01-27T05:07:05.326Z,986.63
2019-01-27T05:08:05.321Z,986.59
2019-01-27T05:09:05.306Z,986.60
2019-01-27T05:10:05.308Z,986.61
2019-01-27T05:11:05.284Z,986.55
2019-01-27T05:12:05.264Z,986.55
2019-01-27T05:13:05.262Z,986.56
2019-01-27T05:14:05.247Z,986.51
2019-01-27T05:15:05.258Z,986.51
2019-01-27T05:16:05.224Z,986.48
2019-01-27T05:17:05.226Z,986.41
2019-01-27T05:18:05.210Z,986.38
2019-01-27T05:19:05.204Z,986.37
2019-01-27T05:20:05.199Z,986.36
2019-01-27T05:21:05.167Z,986.33
2019-01-27T05:22:05.156Z,986.31
2019-01-27T05:23:05.149Z,986.29
2019-01-27T05:24:05.146Z,986.31
2019-01-27T05:25:05.150Z,986.30
2019-01-27T05:26:05.124Z,986.32
2019-01-27T05:27:05.132Z,986.29
2019-01-27T05:28:05.133Z,986.29
2019-01-27T05:29:05.079Z,986.25
2019-01-27T05:30:05.067Z,986.27
2019-01-27T05:31:05.104Z,986.23
2019-01-27T05:32:05.047Z,986.24
2019-01-27T05:33:05.033Z,986.22
2019-01-27T05:34:05.020Z,986.21
2019-01-27T05:35:05.010Z,986.14
2019-01-27T05:36:05.018Z,986.23
2019-01-27T05:37:04.995Z,986.20
2019-01-27T05:38:04.970Z,986.17
2019-01-27T05:39:04.963Z,986.15
2019-01-27T05:40:04.954Z,986.14
2019-01-27T05:41:04.967Z,986.05
2019-01-27T05:42:04.923Z,986.05
2019-01-27T05:43:04.933Z,986.05
2019-01-27T05:44:04.904Z,986.04
2019-01-27T05:45:04.899Z,986.05
2019-01-27T05:46:06.675Z,986.01
2019-01-27T05:47:04.884Z,986.03
2019-01-27T05:48:04.872Z,986.01
2019-01-27T05:49:04.848Z,985.96
2019-01-27T05:50:04.842Z,986.01
2019-01-27T05:51:04.849Z,985.98
2019-01-27T05:52:04.812Z,985.99
2019-01-27T05:53:04.805Z,985.96
2019-01-27T05:54:04.788Z,985.93
2019-01-27T05:55:04.780Z,985.91
2019-01-27T05:56:04.788Z,985.89
2019-01-27T05:57:04.763Z,985.96
2019-01-27T05:58:04.749Z,985.98
2019-01-27T05:59:04.732Z,985.96
2019-01-27T06:00:04.725Z,985.93
2019-01-27T06:01:04.784Z,985.96
2019-01-27T06:02:04.706Z,985.90
2019-01-27T06:03:04.699Z,985.89
2019-01-27T06:04:04.675Z,985.88
2019-01-27T06:05:04.677Z,985.87
2019-01-27T06:06:04.685Z,985.85
2019-01-27T06:07:04.646Z,985.81
2019-01-27T06:08:04.639Z,985.81
2019-01-27T06:09:04.620Z,985.82
2019-01-27T06:10:04.625Z,985.83
2019-01-27T06:11:04.601Z,985.84
2019-01-27T06:12:04.611Z,985.83
2019-01-27T06:13:04.589Z,985.83
2019-01-27T06:14:04.568Z,985.80
2019-01-27T06:15:04.565Z,985.70
2019-01-27T06:16:04.544Z,985.68
2019-01-27T06:17:04.601Z,985.68
2019-01-27T06:18:04.522Z,985.66
2019-01-27T06:19:04.526Z,985.64
2019-01-27T06:20:04.521Z,985.62
2019-01-27T06:21:04.497Z,985.59
2019-01-27T06:22:04.497Z,985.57
2019-01-27T06:23:04.468Z,985.51
2019-01-27T06:24:04.491Z,985.50
2019-01-27T06:25:04.444Z,985.51
2019-01-27T06:26:04.476Z,985.51
2019-01-27T06:27:04.440Z,985.50
2019-01-27T06:28:04.411Z,985.48
2019-01-27T06:29:04.416Z,985.46
2019-01-27T06:30:04.390Z,985.49
2019-01-27T06:31:04.381Z,985.46
2019-01-27T06:32:04.402Z,985.44
2019-01-27T06:33:04.354Z,985.42
2019-01-27T06:34:04.342Z,985.41
2019-01-27T06:35:04.356Z,985.46
2019-01-27T06:36:04.329Z,985.42
2019-01-27T06:37:04.339Z,985.41
2019-01-27T06:38:04.299Z,985.44
2019-01-27T06:39:04.290Z,985.40
2019-01-27T06:40:04.280Z,985.39
2019-01-27T06:41:04.273Z,985.41
2019-01-27T06:42:04.275Z,985.41
2019-01-27T06:43:04.243Z,985.42
2019-01-27T06:44:04.236Z,985.40
2019-01-27T06:45:04.222Z,985.40
2019-01-27T06:46:04.221Z,985.33
2019-01-27T06:47:04.223Z,985.37
2019-01-27T06:48:04.183Z,985.40
2019-01-27T06:49:04.180Z,985.40
2019-01-27T06:50:04.165Z,985.35
2019-01-27T06:51:04.154Z,985.30
2019-01-27T06:52:04.190Z,985.34
2019-01-27T06:53:04.129Z,985.32
2019-01-27T06:54:04.188Z,985.30
2019-01-27T06:55:04.118Z,985.28
2019-01-27T06:56:04.095Z,985.27
2019-01-27T06:57:04.110Z,985.29
2019-01-27T06:58:04.123Z,985.29
2019-01-27T06:59:04.067Z,985.27
2019-01-27T07:00:04.105Z,985.24
2019-01-27T07:01:04.046Z,985.21
2019-01-27T07:02:04.047Z,985.20
2019-01-27T07:03:04.040Z,985.22
2019-01-27T07:04:04.004Z,985.19
2019-01-27T07:05:04.002Z,985.16
2019-01-27T07:06:03.986Z,985.19
2019-01-27T07:07:03.989Z,985.17
2019-01-27T07:08:03.982Z,985.15
2019-01-27T07:09:05.136Z,985.14
2019-01-27T07:10:03.939Z,985.14
2019-01-27T07:11:03.928Z,985.14
2019-01-27T07:12:03.914Z,985.11
2019-01-27T07:13:03.928Z,985.08
2019-01-27T07:14:03.897Z,985.03
2019-01-27T07:15:03.879Z,985.08
2019-01-27T07:16:03.866Z,985.09
2019-01-27T07:17:03.862Z,985.07
2019-01-27T07:18:03.871Z,985.05
2019-01-27T07:19:03.844Z,985.06
2019-01-27T07:20:03.827Z,985.07
2019-01-27T07:21:03.807Z,985.07
2019-01-27T07:22:03.808Z,985.03
2019-01-27T07:23:03.820Z,985.03
2019-01-27T07:24:03.788Z,985.03
2019-01-27T07:25:03.772Z,985.01
2019-01-27T07:26:03.754Z,985.05
2019-01-27T07:27:03.742Z,985.05
2019-01-27T07:28:03.755Z,985.04
2019-01-27T07:29:03.718Z,984.99
2019-01-27T07:30:03.710Z,984.98
2019-01-27T07:31:03.709Z,984.94
2019-01-27T07:32:03.698Z,984.94
2019-01-27T07:33:03.714Z,984.97
2019-01-27T07:34:03.678Z,984.85
2019-01-27T07:35:03.661Z,984.88
2019-01-27T07:36:03.689Z,984.92
2019-01-27T07:37:03.635Z,984.91
2019-01-27T07:38:03.618Z,984.90
2019-01-27T07:39:03.715Z,984.86
2019-01-27T07:40:03.611Z,984.86
2019-01-27T07:41:03.583Z,984.83
2019-01-27T07:42:03.578Z,984.81
2019-01-27T07:43:03.562Z,984.83
2019-01-27T07:44:03.597Z,984.84
2019-01-27T07:45:03.542Z,984.81
2019-01-27T07:46:03.527Z,984.83
2019-01-27T07:47:03.517Z,984.83
2019-01-27T07:48:03.502Z,984.83
2019-01-27T07:49:03.543Z,984.81
2019-01-27T07:50:03.486Z,984.81
2019-01-27T07:51:03.501Z,984.76
2019-01-27T07:52:04.352Z,984.81
2019-01-27T07:53:03.451Z,984.79
2019-01-27T07:54:03.476Z,984.76
2019-01-27T07:55:03.425Z,984.72
2019-01-27T07:56:03.424Z,984.71
2019-01-27T07:57:03.403Z,984.72
2019-01-27T07:58:03.447Z,984.72
2019-01-27T07:59:03.428Z,984.68
2019-01-27T08:00:03.437Z,984.67
2019-01-27T08:01:03.367Z,984.69
2019-01-27T08:02:03.350Z,984.59
2019-01-27T08:03:03.344Z,984.55
2019-01-27T08:04:03.360Z,984.58
2019-01-27T08:05:03.318Z,984.62
2019-01-27T08:06:03.306Z,984.52
2019-01-27T08:07:03.293Z,984.55
2019-01-27T08:08:03.318Z,984.55
2019-01-27T08:09:03.349Z,984.58
2019-01-27T08:10:03.265Z,984.61
2019-01-27T08:11:03.254Z,984.59
2019-01-27T08:12:03.249Z,984.59
2019-01-27T08:13:03.243Z,984.58
2019-01-27T08:14:03.251Z,984.58
2019-01-27T08:15:03.200Z,984.58
2019-01-27T08:16:03.200Z,984.55
2019-01-27T08:17:03.652Z,984.55
2019-01-27T08:18:03.184Z,984.52
2019-01-27T08:19:03.168Z,984.51
2019-01-27T08:20:03.174Z,984.51
2019-01-27T08:21:03.147Z,984.49
2019-01-27T08:22:03.123Z,984.47
2019-01-27T08:23:03.172Z,984.45
2019-01-27T08:24:03.114Z,984.49
2019-01-27T08:25:03.146Z,984.50
2019-01-27T08:26:03.082Z,984.50
2019-01-27T08:27:03.070Z,984.41
2019-01-27T08:28:03.078Z,984.42
2019-01-27T08:29:03.052Z,984.38
2019-01-27T08:30:03.066Z,984.33
2019-01-27T08:31:03.031Z,984.41
2019-01-27T08:32:03.027Z,984.36
2019-01-27T08:33:03.004Z,984.35
2019-01-27T08:34:03.005Z,984.33
2019-01-27T08:35:03.006Z,984.33
2019-01-27T08:36:02.976Z,984.33
2019-01-27T08:37:02.969Z,984.33
2019-01-27T08:38:02.944Z,984.34
2019-01-27T08:39:02.940Z,984.30
2019-01-27T08:40:02.946Z,984.33
2019-01-27T08:41:02.975Z,984.31
2019-01-27T08:42:02.902Z,984.33
2019-01-27T08:43:02.901Z,984.35
2019-01-27T08:44:02.885Z,984.35
2019-01-27T08:45:02.902Z,984.28
2019-01-27T08:46:02.856Z,984.25
2019-01-27T08:47:02.853Z,984.21
2019-01-27T08:48:02.841Z,984.26
2019-01-27T08:49:02.826Z,984.25
2019-01-27T08:50:02.849Z,984.28
2019-01-27T08:51:02.888Z,984.27
2019-01-27T08:52:02.790Z,984.25
2019-01-27T08:53:02.777Z,984.21
2019-01-27T08:54:02.777Z,984.24
2019-01-27T08:55:02.783Z,984.21
2019-01-27T08:56:02.746Z,984.21
2019-01-27T08:57:02.730Z,984.21
2019-01-27T08:58:02.783Z,984.24
2019-01-27T08:59:02.857Z,984.24
2019-01-27T09:00:02.772Z,984.24
2019-01-27T09:01:02.690Z,984.23
2019-01-27T09:02:02.690Z,984.25
2019-01-27T09:03:03.469Z,984.26
2019-01-27T09:04:02.675Z,984.25
2019-01-27T09:05:02.653Z,984.20
2019-01-27T09:06:02.675Z,984.22
2019-01-27T09:07:02.634Z,984.18
2019-01-27T09:08:02.619Z,984.16
2019-01-27T09:09:02.612Z,984.14
2019-01-27T09:10:02.605Z,984.14
2019-01-27T09:11:02.901Z,984.09
2019-01-27T09:12:02.575Z,984.08
2019-01-27T09:13:02.559Z,984.11
2019-01-27T09:14:02.559Z,984.10
2019-01-27T09:15:02.543Z,984.06
2019-01-27T09:16:02.546Z,984.07
2019-01-27T09:17:02.516Z,984.02
2019-01-27T09:18:02.501Z,984.00
2019-01-27T09:19:02.504Z,984.01
2019-01-27T09:20:02.492Z,984.02
2019-01-27T09:21:02.493Z,983.99
2019-01-27T09:22:02.469Z,983.91
2019-01-27T09:23:02.453Z,983.90
2019-01-27T09:24:02.456Z,983.91
2019-01-27T09:25:02.476Z,983.89
2019-01-27T09:26:02.432Z,983.81
2019-01-27T09:27:02.401Z,983.84
2019-01-27T09:28:02.392Z,983.82
2019-01-27T09:29:02.388Z,983.84
2019-01-27T09:30:02.371Z,983.82
2019-01-27T09:31:02.394Z,983.86
2019-01-27T09:32:02.360Z,983.80
2019-01-27T09:33:02.343Z,983.85
2019-01-27T09:34:02.347Z,983.84
2019-01-27T09:35:02.433Z,983.84
2019-01-27T09:36:02.322Z,983.85
2019-01-27T09:37:02.312Z,983.72
2019-01-27T09:38:02.301Z,983.81
2019-01-27T09:39:02.315Z,983.71
2019-01-27T09:40:02.262Z,983.82
2019-01-27T09:41:02.271Z,983.78
2019-01-27T09:42:02.271Z,983.76
2019-01-27T09:43:02.231Z,983.79
2019-01-27T09:44:02.226Z,983.72
2019-01-27T09:45:02.222Z,983.74
2019-01-27T09:46:05.601Z,983.75
2019-01-27T09:47:03.202Z,983.69
2019-01-27T09:48:02.177Z,983.72
2019-01-27T09:49:02.241Z,983.70
2019-01-27T09:50:02.156Z,983.60
2019-01-27T09:51:02.163Z,983.64
2019-01-27T09:52:02.133Z,983.61
2019-01-27T09:53:02.131Z,983.65
2019-01-27T09:54:02.115Z,983.62
2019-01-27T09:55:02.102Z,983.67
2019-01-27T09:56:02.122Z,983.59
2019-01-27T09:57:02.087Z,983.61
2019-01-27T09:58:02.074Z,983.56
2019-01-27T09:59:02.053Z,983.58
2019-01-27T10:00:02.057Z,983.56
2019-01-27T10:01:02.037Z,983.59
2019-01-27T10:02:02.080Z,983.56
2019-01-27T10:03:02.010Z,983.61
2019-01-27T10:04:01.991Z,983.54
2019-01-27T10:05:02.022Z,983.49
2019-01-27T10:06:02.022Z,983.52
2019-01-27T10:07:02.036Z,983.52
2019-01-27T10:08:01.943Z,983.51
2019-01-27T10:09:01.939Z,983.48
2019-01-27T10:10:01.918Z,983.50
2019-01-27T10:11:01.909Z,983.48
2019-01-27T10:12:01.928Z,983.46
2019-01-27T10:13:01.912Z,983.47
2019-01-27T10:14:01.937Z,983.46
2019-01-27T10:15:01.878Z,983.44
2019-01-27T10:16:01.857Z,983.40
2019-01-27T10:17:01.864Z,983.38
2019-01-27T10:18:01.851Z,983.43
2019-01-27T10:19:01.823Z,983.39
2019-01-27T10:20:02.072Z,983.38
2019-01-27T10:21:02.351Z,983.40
2019-01-27T10:22:01.837Z,983.39
2019-01-27T10:23:01.794Z,983.38
2019-01-27T10:24:01.768Z,983.39
2019-01-27T10:25:01.772Z,983.38
2019-01-27T10:26:01.749Z,983.36
2019-01-27T10:27:01.780Z,983.33
2019-01-27T10:28:01.736Z,983.31
2019-01-27T10:29:01.708Z,983.27
2019-01-27T10:30:01.705Z,983.27
2019-01-27T10:31:01.694Z,983.25
2019-01-27T10:32:01.671Z,983.23
2019-01-27T10:33:01.712Z,983.26
2019-01-27T10:34:01.654Z,983.26
2019-01-27T10:35:01.638Z,983.20
2019-01-27T10:36:01.637Z,983.21
2019-01-27T10:37:01.610Z,983.20
2019-01-27T10:38:01.625Z,983.19
2019-01-27T10:39:01.617Z,983.21
2019-01-27T10:40:09.170Z,983.16
2019-01-27T10:41:02.610Z,983.17
2019-01-27T10:42:01.560Z,983.17
2019-01-27T10:43:01.576Z,983.15
2019-01-27T10:44:01.547Z,983.19
2019-01-27T10:45:01.525Z,983.19
2019-01-27T10:46:01.515Z,983.19
2019-01-27T10:47:01.500Z,983.12
2019-01-27T10:48:01.519Z,983.12
2019-01-27T10:49:01.490Z,983.09
2019-01-27T10:50:02.987Z,983.07
2019-01-27T10:51:01.453Z,983.08
2019-01-27T10:52:01.447Z,983.07
2019-01-27T10:53:01.489Z,983.09
2019-01-27T10:54:01.436Z,983.11
2019-01-27T10:55:01.413Z,983.03
2019-01-27T10:56:01.406Z,983.04
2019-01-27T10:57:01.400Z,983.03
2019-01-27T10:58:01.392Z,982.98
2019-01-27T10:59:01.375Z,983.03
2019-01-27T11:00:01.358Z,983.05
2019-01-27T11:01:01.354Z,982.96
2019-01-27T11:02:01.329Z,982.95
2019-01-27T11:03:01.341Z,982.91
2019-01-27T11:04:01.318Z,982.88
2019-01-27T11:05:01.289Z,982.88
2019-01-27T11:06:01.298Z,982.85
2019-01-27T11:07:01.304Z,982.82
2019-01-27T11:08:01.285Z,982.82
2019-01-27T11:09:01.248Z,982.81
2019-01-27T11:10:01.270Z,982.75
2019-01-27T11:11:01.260Z,982.77
2019-01-27T11:12:01.227Z,982.77
2019-01-27T11:13:01.288Z,982.77
2019-01-27T11:14:01.207Z,982.80
2019-01-27T11:15:01.193Z,982.80
2019-01-27T11:16:01.240Z,982.74
2019-01-27T11:17:01.162Z,982.75
2019-01-27T11:18:01.157Z,982.73
2019-01-27T11:19:01.166Z,982.79
2019-01-27T11:20:01.136Z,982.78
2019-01-27T11:21:01.559Z,982.71
2019-01-27T11:22:01.109Z,982.74
2019-01-27T11:23:01.102Z,982.68
2019-01-27T11:24:01.107Z,982.69
2019-01-27T11:25:01.088Z,982.65
2019-01-27T11:26:01.884Z,982.70
2019-01-27T11:27:01.040Z,982.64
2019-01-27T11:28:01.027Z,982.61
2019-01-27T11:29:01.040Z,982.57
2019-01-27T11:30:01.049Z,982.53
2019-01-27T11:31:01.002Z,982.53
2019-01-27T11:32:00.985Z,982.52
2019-01-27T11:33:02.564Z,982.50
2019-01-27T11:34:00.993Z,982.49
2019-01-27T11:35:00.945Z,982.50
2019-01-27T11:36:00.980Z,982.45
2019-01-27T11:37:00.953Z,982.45
2019-01-27T11:38:00.925Z,982.40
2019-01-27T11:39:00.952Z,982.40
2019-01-27T11:40:00.893Z,982.40
2019-01-27T11:41:00.894Z,982.38
2019-01-27T11:42:00.891Z,982.39
2019-01-27T11:43:00.863Z,982.36
2019-01-27T11:44:00.888Z,982.35
2019-01-27T11:45:00.910Z,982.33
2019-01-27T11:46:00.849Z,982.35
2019-01-27T11:47:00.817Z,982.36
2019-01-27T11:48:00.801Z,982.29
2019-01-27T11:49:00.832Z,982.28
2019-01-27T11:50:00.792Z,982.24
2019-01-27T11:51:00.827Z,982.23
2019-01-27T11:52:00.754Z,982.24
2019-01-27T11:53:00.755Z,982.21
2019-01-27T11:54:00.769Z,982.18
2019-01-27T11:55:00.738Z,982.21
2019-01-27T11:56:00.716Z,982.32
2019-01-27T11:57:00.717Z,982.25
2019-01-27T11:58:00.689Z,982.23
2019-01-27T11:59:00.715Z,982.27
2019-01-27T12:00:00.667Z,982.27
2019-01-27T12:01:00.742Z,982.26
2019-01-27T12:02:00.641Z,982.19
2019-01-27T12:03:00.642Z,982.20
2019-01-27T12:04:00.635Z,982.18
2019-01-27T12:05:00.625Z,982.17
2019-01-27T12:06:00.598Z,982.01
2019-01-27T12:07:00.597Z,982.02
2019-01-27T12:08:00.628Z,982.05
2019-01-27T12:09:00.592Z,982.07
2019-01-27T12:10:00.607Z,982.12
2019-01-27T12:11:00.536Z,982.14
2019-01-27T12:12:00.537Z,982.06
2019-01-27T12:13:00.525Z,982.06
2019-01-27T12:14:00.509Z,982.05
2019-01-27T12:15:00.523Z,981.98
2019-01-27T12:16:00.482Z,981.96
2019-01-27T12:17:00.474Z,981.97
2019-01-27T12:18:00.459Z,982.05
2019-01-27T12:19:00.444Z,982.04
2019-01-27T12:20:00.447Z,982.02
2019-01-27T12:21:00.425Z,982.04
2019-01-27T12:22:00.408Z,981.99
2019-01-27T12:23:00.402Z,982.04
2019-01-27T12:24:00.395Z,982.00
2019-01-27T12:25:00.446Z,982.02
2019-01-27T12:26:00.388Z,982.04
2019-01-27T12:27:00.349Z,982.01
2019-01-27T12:28:00.371Z,981.99